Time;durP1;ratioP1;P1;durP2;ratioP2;P2;SDS_P1;SDS_P2;PMS_P1;PMS_P2;Temp;Humidity;BMP_temperature;BMP_pressure;BME280_temperature;BME280_humidity;BME280_pressure;Samples;Min_cycle;Max_cycle;Signal;HPM_P1;HPM_P2
2022/08/08 00:01:29;;;;;;;5.00;4.55;;;;;;;;;;4931354;29;20219;-74
2022/08/08 00:04:06;;;;;;;5.53;4.88;;;;;;;;;;4902973;29;20226;-75
2022/08/08 00:06:47;;;;;;;4.75;4.35;;;;;;;;;;4903069;29;20705;-74
2022/08/08 00:09:18;;;;;;;4.67;4.27;;;;;;;;;;4917046;29;20290;-75
2022/08/08 00:12:01;;;;;;;4.88;4.53;;;;;;;;;;4944661;29;20281;-75
2022/08/08 00:14:50;;;;;;;5.05;4.63;;;;;;;;;;4917081;29;20327;-75
2022/08/08 00:17:27;;;;;;;5.45;4.28;;;;;;;;;;4932804;29;20253;-75
2022/08/08 00:20:01;;;;;;;6.53;5.07;;;;;;;;;;4942542;28;20227;-75
2022/08/08 00:22:31;;;;;;;4.72;4.35;;;;;;;;;;4888912;29;20223;-75
2022/08/08 00:25:00;;;;;;;5.00;4.60;;;;;;;;;;4902085;29;20250;-75
2022/08/08 00:27:28;;;;;;;5.50;4.93;;;;;;;;;;4900834;29;20246;-75
2022/08/08 00:29:59;;;;;;;5.63;4.77;;;;;;;;;;4916566;29;20810;-75
2022/08/08 00:32:41;;;;;;;5.10;4.70;;;;;;;;;;4900417;29;20235;-75
2022/08/08 00:35:31;;;;;;;5.50;5.00;;;;;;;;;;4915144;29;20224;-74
2022/08/08 00:38:29;;;;;;;5.10;4.60;;;;;;;;;;4888428;29;20574;-75
2022/08/08 00:41:34;;;;;;;5.53;5.13;;;;;;;;;;4930316;29;20234;-75
2022/08/08 00:44:20;;;;;;;5.65;5.15;;;;;;;;;;4931712;29;20302;-75
2022/08/08 00:46:58;;;;;;;5.60;5.07;;;;;;;;;;4932767;29;20233;-75
2022/08/08 00:49:51;;;;;;;6.13;5.53;;;;;;;;;;4944998;28;20222;-75
2022/08/08 00:52:52;;;;;;;5.93;5.37;;;;;;;;;;4917929;29;20227;-75
2022/08/08 00:55:29;;;;;;;5.40;4.73;;;;;;;;;;4914849;29;20223;-75
2022/08/08 00:58:32;;;;;;;5.63;5.03;;;;;;;;;;4945303;28;20326;-75
2022/08/08 01:01:12;;;;;;;5.27;4.87;;;;;;;;;;4945629;29;20235;-76
2022/08/08 01:04:28;;;;;;;5.80;5.30;;;;;;;;;;4943839;29;20242;-75
2022/08/08 01:07:28;;;;;;;7.07;4.97;;;;;;;;;;4837420;29;20230;-75
2022/08/08 01:10:23;;;;;;;5.67;5.17;;;;;;;;;;4836782;29;21108;-75
2022/08/08 01:13:17;;;;;;;5.27;4.87;;;;;;;;;;4913102;29;20249;-75
2022/08/08 01:16:31;;;;;;;5.17;4.77;;;;;;;;;;4923482;29;20229;-75
2022/08/08 01:19:23;;;;;;;5.47;5.00;;;;;;;;;;4825990;29;20229;-75
2022/08/08 01:22:02;;;;;;;5.00;4.60;;;;;;;;;;4913658;29;20237;-76
2022/08/08 01:25:08;;;;;;;5.40;5.00;;;;;;;;;;4931645;29;20219;-75
2022/08/08 01:27:45;;;;;;;5.73;5.23;;;;;;;;;;4930186;29;20305;-75
2022/08/08 01:30:42;;;;;;;4.80;4.40;;;;;;;;;;4914945;29;20280;-76
2022/08/08 01:33:49;;;;;;;5.40;4.90;;;;;;;;;;4929184;29;20228;-76
2022/08/08 01:36:51;;;;;;;7.40;5.10;;;;;;;;;;4928730;29;20317;-75
2022/08/08 01:39:43;;;;;;;5.40;5.00;;;;;;;;;;4928051;29;20771;-76
2022/08/08 01:42:29;;;;;;;5.77;5.27;;;;;;;;;;4885407;29;20561;-76
2022/08/08 01:45:21;;;;;;;5.67;5.00;;;;;;;;;;4916373;29;20215;-76
2022/08/08 01:48:12;;;;;;;5.20;4.80;;;;;;;;;;4905370;29;20229;-75
2022/08/08 01:51:28;;;;;;;5.67;5.17;;;;;;;;;;4915029;29;20211;-76
2022/08/08 01:54:06;;;;;;;5.97;4.73;;;;;;;;;;4907766;29;20262;-75
2022/08/08 01:56:59;;;;;;;5.53;5.13;;;;;;;;;;4929340;29;20310;-75
2022/08/08 01:59:40;;;;;;;5.70;5.30;;;;;;;;;;4913936;29;20618;-75
2022/08/08 02:02:09;;;;;;;6.20;5.60;;;;;;;;;;4919790;29;20227;-74
2022/08/08 02:05:06;;;;;;;5.87;5.37;;;;;;;;;;4906775;29;20257;-75
2022/08/08 02:07:49;;;;;;;6.73;5.17;;;;;;;;;;4944922;29;20219;-75
2022/08/08 02:10:21;;;;;;;5.90;5.30;;;;;;;;;;4929178;29;20763;-75
2022/08/08 02:12:57;;;;;;;5.57;5.07;;;;;;;;;;4928793;29;20816;-75
2022/08/08 02:15:46;;;;;;;5.53;5.10;;;;;;;;;;4914613;29;20234;-75
2022/08/08 02:18:35;;;;;;;6.03;5.53;;;;;;;;;;4927537;29;20979;-75
2022/08/08 02:24:38;;;;;;;5.27;4.87;;;;;;;;;;4916577;29;20231;-75
2022/08/08 02:27:12;;;;;;;5.20;4.80;;;;;;;;;;4914538;29;20214;-76
2022/08/08 02:30:07;;;;;;;9.23;8.43;;;;;;;;;;4898025;29;20270;-76
2022/08/08 02:32:42;;;;;;;5.43;5.00;;;;;;;;;;4889221;29;20230;-76
2022/08/08 02:35:32;;;;;;;5.40;4.90;;;;;;;;;;4924908;29;20233;-75
2022/08/08 02:38:24;;;;;;;5.00;4.60;;;;;;;;;;4914607;28;20955;-76
2022/08/08 02:41:38;;;;;;;5.67;5.00;;;;;;;;;;4929894;29;20611;-76
2022/08/08 02:44:24;;;;;;;5.63;5.13;;;;;;;;;;4886349;29;20694;-76
2022/08/08 02:47:17;;;;;;;5.60;5.10;;;;;;;;;;4918820;29;20301;-76
2022/08/08 02:49:51;;;;;;;6.07;5.57;;;;;;;;;;4927052;29;20716;-76
2022/08/08 02:52:43;;;;;;;5.87;5.37;;;;;;;;;;4920978;29;20226;-76
2022/08/08 02:55:29;;;;;;;6.27;5.70;;;;;;;;;;4930746;28;20214;-75
2022/08/08 02:58:25;;;;;;;6.00;5.43;;;;;;;;;;4926051;28;20226;-75
2022/08/08 03:01:15;;;;;;;6.33;5.73;;;;;;;;;;4932696;29;20223;-76
2022/08/08 03:04:11;;;;;;;7.17;5.77;;;;;;;;;;4932656;29;20227;-76
2022/08/08 03:06:59;;;;;;;6.33;5.77;;;;;;;;;;4933133;29;20246;-76
2022/08/08 03:09:54;;;;;;;7.03;6.33;;;;;;;;;;4902318;29;20219;-76
2022/08/08 03:12:45;;;;;;;6.60;6.00;;;;;;;;;;4931581;29;20233;-76
2022/08/08 03:15:46;;;;;;;6.37;5.77;;;;;;;;;;4946671;28;20246;-75
2022/08/08 03:18:32;;;;;;;6.20;5.60;;;;;;;;;;4937967;29;20238;-75
2022/08/08 03:21:00;;;;;;;6.07;5.57;;;;;;;;;;4920254;29;20359;-76
2022/08/08 03:23:29;;;;;;;6.67;5.70;;;;;;;;;;4932393;29;20242;-75
2022/08/08 03:25:58;;;;;;;5.87;5.37;;;;;;;;;;4916631;29;20219;-77
2022/08/08 03:28:32;;;;;;;6.70;5.17;;;;;;;;;;4899358;29;20219;-75
2022/08/08 03:33:16;;;;;;;5.40;5.10;;;;;;;;;;4917317;29;20669;-75
2022/08/08 03:33:47;;;;;;;6.17;5.57;;;;;;;;;;4905682;29;20219;-75
2022/08/08 03:36:15;;;;;;;5.87;5.37;;;;;;;;;;4902062;29;20377;-76
2022/08/08 03:38:40;;;;;;;5.60;5.17;;;;;;;;;;4915803;29;20222;-75
2022/08/08 03:41:06;;;;;;;6.53;5.97;;;;;;;;;;4916063;29;20567;-77
2022/08/08 03:43:34;;;;;;;6.10;5.60;;;;;;;;;;4917218;29;20365;-75
2022/08/08 03:46:07;;;;;;;6.40;5.70;;;;;;;;;;4900101;29;20212;-74
2022/08/08 03:48:37;;;;;;;6.17;5.67;;;;;;;;;;4907422;29;20215;-75
2022/08/08 03:51:07;;;;;;;6.77;6.20;;;;;;;;;;4917405;29;20227;-75
2022/08/08 03:53:37;;;;;;;5.97;5.40;;;;;;;;;;4899359;29;20211;-76
2022/08/08 03:56:14;;;;;;;6.07;5.47;;;;;;;;;;4914861;28;20215;-76
2022/08/08 03:58:40;;;;;;;6.40;5.90;;;;;;;;;;4908872;29;20253;-75
2022/08/08 04:01:15;;;;;;;5.87;5.40;;;;;;;;;;4926546;29;20653;-75
2022/08/08 04:03:45;;;;;;;5.80;5.30;;;;;;;;;;4915127;29;20318;-75
2022/08/08 04:06:11;;;;;;;6.03;5.53;;;;;;;;;;4931735;29;20301;-75
2022/08/08 04:08:37;;;;;;;5.77;5.33;;;;;;;;;;4915050;29;20591;-75
2022/08/08 04:11:08;;;;;;;6.50;5.90;;;;;;;;;;4916473;29;20234;-74
2022/08/08 04:13:36;;;;;;;6.00;5.50;;;;;;;;;;4932901;29;20210;-77
2022/08/08 04:16:02;;;;;;;5.70;5.23;;;;;;;;;;4932861;29;20225;-76
2022/08/08 04:18:29;;;;;;;5.60;5.10;;;;;;;;;;4911367;29;20242;-76
2022/08/08 04:20:57;;;;;;;5.57;5.07;;;;;;;;;;4914323;29;20679;-76
2022/08/08 04:23:23;;;;;;;5.50;5.00;;;;;;;;;;4929577;29;20290;-75
2022/08/08 04:25:50;;;;;;;5.90;5.40;;;;;;;;;;4912511;29;20214;-76
2022/08/08 04:28:18;;;;;;;5.93;5.43;;;;;;;;;;4902735;29;20246;-75
2022/08/08 04:30:47;;;;;;;5.77;5.23;;;;;;;;;;4913161;29;20309;-75
2022/08/08 04:33:15;;;;;;;5.40;4.97;;;;;;;;;;4906846;29;20221;-74
2022/08/08 04:35:40;;;;;;;5.77;5.27;;;;;;;;;;4916861;29;20326;-75
2022/08/08 04:38:12;;;;;;;5.83;5.33;;;;;;;;;;4899118;29;20227;-75
2022/08/08 04:40:41;;;;;;;7.13;5.67;;;;;;;;;;4916645;29;20218;-76
2022/08/08 04:43:06;;;;;;;6.17;5.60;;;;;;;;;;4900174;29;20234;-76
2022/08/08 04:45:39;;;;;;;5.97;5.43;;;;;;;;;;4917582;29;20233;-76
2022/08/08 04:48:08;;;;;;;5.57;5.13;;;;;;;;;;4908105;28;20223;-75
2022/08/08 04:50:38;;;;;;;5.20;4.80;;;;;;;;;;4892936;29;20212;-76
2022/08/08 04:53:07;;;;;;;7.57;5.10;;;;;;;;;;4928007;29;20246;-76
2022/08/08 04:55:35;;;;;;;5.00;4.60;;;;;;;;;;4913624;29;20230;-76
2022/08/08 04:58:00;;;;;;;5.30;4.90;;;;;;;;;;4914155;29;20603;-76
2022/08/08 05:00:29;;;;;;;5.30;4.90;;;;;;;;;;4898129;29;20226;-75
2022/08/08 05:02:57;;;;;;;5.60;5.10;;;;;;;;;;4891555;29;20216;-75
2022/08/08 05:05:25;;;;;;;5.37;4.97;;;;;;;;;;4914214;29;20298;-77
2022/08/08 05:07:50;;;;;;;6.87;5.20;;;;;;;;;;4931154;29;20591;-76
2022/08/08 05:10:16;;;;;;;5.27;4.87;;;;;;;;;;4891889;29;20226;-76
2022/08/08 05:12:42;;;;;;;5.23;4.77;;;;;;;;;;4914660;29;20223;-75
2022/08/08 05:15:09;;;;;;;4.67;4.37;;;;;;;;;;4930652;29;20223;-76
2022/08/08 05:17:34;;;;;;;5.17;4.67;;;;;;;;;;4914135;29;20732;-74
2022/08/08 05:20:06;;;;;;;5.53;4.80;;;;;;;;;;4929620;29;20237;-77
2022/08/08 05:22:35;;;;;;;6.03;5.43;;;;;;;;;;4898608;29;20390;-77
2022/08/08 05:25:02;;;;;;;5.23;4.83;;;;;;;;;;4914645;29;20577;-76
2022/08/08 05:27:30;;;;;;;5.73;5.23;;;;;;;;;;4899086;29;20223;-76
2022/08/08 05:29:58;;;;;;;6.23;5.63;;;;;;;;;;4940393;29;20258;-76
2022/08/08 05:32:28;;;;;;;5.73;5.23;;;;;;;;;;4909956;29;20231;-76
2022/08/08 05:34:59;;;;;;;5.67;5.23;;;;;;;;;;4899063;29;21026;-76
2022/08/08 05:37:32;;;;;;;6.00;5.40;;;;;;;;;;4915766;29;20249;-76
2022/08/08 05:40:03;;;;;;;5.80;5.00;;;;;;;;;;4913786;29;20568;-76
2022/08/08 05:42:45;;;;;;;6.20;5.60;;;;;;;;;;4888224;29;21011;-76
2022/08/08 05:45:21;;;;;;;6.00;5.47;;;;;;;;;;5082761;27;20567;-77
2022/08/08 05:47:46;;;;;;;6.00;5.40;;;;;;;;;;5065343;28;20230;-77
2022/08/08 05:50:16;;;;;;;7.50;5.23;;;;;;;;;;5063977;28;20243;-77
2022/08/08 05:52:44;;;;;;;6.05;5.55;;;;;;;;;;5039633;28;20205;-77
2022/08/08 05:55:14;;;;;;;5.10;4.70;;;;;;;;;;5047637;28;20302;-77
2022/08/08 05:57:46;;;;;;;5.90;5.27;;;;;;;;;;5033482;28;20724;-77
2022/08/08 06:00:13;;;;;;;6.00;5.40;;;;;;;;;;5047502;28;20214;-77
2022/08/08 06:05:51;;;;;;;5.15;4.75;;;;;;;;;;5062970;28;20247;-79
2022/08/08 06:08:30;;;;;;;5.72;5.22;;;;;;;;;;5083506;28;20279;-77
2022/08/08 06:11:02;;;;;;;5.20;4.75;;;;;;;;;;5100018;28;20217;-76
2022/08/08 06:13:29;;;;;;;5.38;4.90;;;;;;;;;;5071443;28;20218;-76
2022/08/08 06:15:57;;;;;;;6.18;5.10;;;;;;;;;;5061645;28;20240;-76
2022/08/08 06:18:46;;;;;;;5.68;5.18;;;;;;;;;;5082074;28;20256;-76
2022/08/08 06:21:12;;;;;;;5.38;4.88;;;;;;;;;;5052342;28;20244;-76
2022/08/08 06:23:41;;;;;;;5.15;4.70;;;;;;;;;;5059579;28;20623;-77
2022/08/08 06:26:09;;;;;;;5.90;5.30;;;;;;;;;;5061619;27;20221;-76
2022/08/08 06:28:42;;;;;;;5.15;4.75;;;;;;;;;;5071294;28;20322;-77
2022/08/08 06:31:13;;;;;;;5.00;4.60;;;;;;;;;;5088105;27;20223;-77
2022/08/08 06:33:39;;;;;;;5.55;4.55;;;;;;;;;;5057012;28;20216;-76
2022/08/08 06:36:07;;;;;;;7.32;4.60;;;;;;;;;;5089291;28;20648;-76
2022/08/08 06:38:36;;;;;;;4.72;4.32;;;;;;;;;;5065911;28;20229;-76
2022/08/08 06:41:11;;;;;;;5.82;4.43;;;;;;;;;;5062322;27;20679;-76
2022/08/08 06:43:40;;;;;;;4.97;4.47;;;;;;;;;;5063247;28;20221;-77
2022/08/08 06:46:19;;;;;;;5.20;4.35;;;;;;;;;;5067768;28;20579;-77
2022/08/08 06:48:47;;;;;;;5.13;4.00;;;;;;;;;;5063850;28;20639;-77
2022/08/08 06:51:14;;;;;;;5.57;3.97;;;;;;;;;;5058720;28;20731;-76
2022/08/08 06:53:40;;;;;;;4.65;3.95;;;;;;;;;;5081954;28;20214;-76
2022/08/08 06:56:11;;;;;;;3.90;3.60;;;;;;;;;;5071104;28;20225;-76
2022/08/08 06:58:37;;;;;;;5.38;4.13;;;;;;;;;;5094832;28;20211;-77
2022/08/08 07:01:06;;;;;;;4.93;3.30;;;;;;;;;;5042906;28;20230;-76
2022/08/08 07:04:02;;;;;;;3.50;3.17;;;;;;;;;;5052779;28;20284;-75
2022/08/08 07:06:31;;;;;;;3.58;3.20;;;;;;;;;;5064771;28;20217;-75
2022/08/08 07:09:02;;;;;;;3.30;3.00;;;;;;;;;;5061457;28;20223;-75
2022/08/08 07:11:31;;;;;;;3.45;3.15;;;;;;;;;;5050861;28;20313;-76
2022/08/08 07:14:03;;;;;;;3.35;2.92;;;;;;;;;;5051336;28;20210;-75
2022/08/08 07:16:57;;;;;;;3.20;2.92;;;;;;;;;;5032893;28;20293;-75
2022/08/08 07:19:29;;;;;;;3.40;3.10;;;;;;;;;;5067773;28;20305;-75
2022/08/08 07:21:56;;;;;;;3.17;2.80;;;;;;;;;;5080277;28;20225;-75
2022/08/08 07:24:24;;;;;;;2.92;2.60;;;;;;;;;;5049197;28;20354;-75
2022/08/08 07:26:55;;;;;;;3.20;3.00;;;;;;;;;;5073738;28;20218;-74
2022/08/08 07:29:22;;;;;;;3.47;3.22;;;;;;;;;;5050068;28;20230;-75
2022/08/08 07:31:48;;;;;;;3.10;2.78;;;;;;;;;;5046993;28;20250;-75
2022/08/08 07:34:14;;;;;;;3.70;3.15;;;;;;;;;;5095863;28;20229;-75
2022/08/08 07:36:42;;;;;;;3.15;2.80;;;;;;;;;;5068815;28;20297;-75
2022/08/08 07:39:08;;;;;;;4.13;2.90;;;;;;;;;;5061730;28;20226;-74
2022/08/08 07:41:36;;;;;;;2.92;2.72;;;;;;;;;;5076970;28;20222;-74
2022/08/08 07:44:05;;;;;;;3.13;2.83;;;;;;;;;;5080159;28;20302;-74
2022/08/08 07:46:31;;;;;;;5.00;3.13;;;;;;;;;;5067498;28;20228;-74
2022/08/08 07:49:03;;;;;;;2.90;2.70;;;;;;;;;;5060496;28;20588;-74
2022/08/08 07:51:32;;;;;;;2.53;2.35;;;;;;;;;;5062725;28;20224;-75
2022/08/08 07:54:02;;;;;;;3.88;2.70;;;;;;;;;;5048830;28;20227;-75
2022/08/08 07:56:35;;;;;;;3.80;3.10;;;;;;;;;;5063709;28;20725;-74
2022/08/08 07:59:03;;;;;;;2.40;2.30;;;;;;;;;;5063983;28;20237;-74
2022/08/08 08:01:32;;;;;;;3.22;2.80;;;;;;;;;;5046171;28;20264;-74
2022/08/08 08:04:03;;;;;;;3.00;2.70;;;;;;;;;;5059375;28;20226;-74
2022/08/08 08:06:32;;;;;;;3.22;2.75;;;;;;;;;;5051383;28;20833;-74
2022/08/08 08:09:24;;;;;;;2.90;2.50;;;;;;;;;;5059355;28;20271;-76
2022/08/08 08:11:50;;;;;;;7.63;2.33;;;;;;;;;;5063315;28;20222;-75
2022/08/08 08:14:29;;;;;;;3.42;2.60;;;;;;;;;;5046595;28;20264;-75
2022/08/08 08:16:59;;;;;;;3.65;2.70;;;;;;;;;;5075370;28;20218;-76
2022/08/08 08:19:33;;;;;;;2.83;2.35;;;;;;;;;;5049689;28;20226;-75
2022/08/08 08:21:59;;;;;;;3.53;2.50;;;;;;;;;;5069632;28;20234;-73
2022/08/08 08:24:30;;;;;;;3.08;2.50;;;;;;;;;;5061341;28;20214;-75
2022/08/08 08:26:59;;;;;;;2.78;2.38;;;;;;;;;;5061399;28;20228;-75
2022/08/08 08:29:27;;;;;;;2.65;2.45;;;;;;;;;;5076344;28;21132;-74
2022/08/08 08:31:58;;;;;;;3.35;2.72;;;;;;;;;;5067538;28;20206;-75
2022/08/08 08:34:25;;;;;;;2.50;2.30;;;;;;;;;;5040046;28;20305;-75
2022/08/08 08:36:50;;;;;;;3.08;1.92;;;;;;;;;;5049400;28;20211;-75
2022/08/08 08:39:17;;;;;;;3.50;2.22;;;;;;;;;;5044745;28;20610;-75
2022/08/08 08:41:45;;;;;;;3.72;2.38;;;;;;;;;;5065869;28;20210;-75
2022/08/08 08:44:13;;;;;;;2.72;2.40;;;;;;;;;;5055645;28;20545;-75
2022/08/08 08:46:41;;;;;;;3.42;2.50;;;;;;;;;;5041688;28;20747;-75
2022/08/08 08:49:10;;;;;;;3.13;2.75;;;;;;;;;;5057672;28;20214;-75
2022/08/08 08:51:41;;;;;;;2.45;2.25;;;;;;;;;;5050746;28;20282;-75
2022/08/08 08:54:08;;;;;;;2.58;2.38;;;;;;;;;;5034771;28;20233;-75
2022/08/08 08:56:36;;;;;;;3.65;2.60;;;;;;;;;;5047128;28;20263;-75
2022/08/08 08:59:10;;;;;;;2.95;2.55;;;;;;;;;;5065702;28;20270;-76
2022/08/08 09:01:41;;;;;;;2.78;2.58;;;;;;;;;;5029187;28;20218;-76
2022/08/08 09:04:08;;;;;;;4.10;2.60;;;;;;;;;;5061491;28;20634;-76
2022/08/08 09:06:40;;;;;;;2.90;2.20;;;;;;;;;;5063944;28;20585;-76
2022/08/08 09:09:12;;;;;;;2.70;2.50;;;;;;;;;;5055188;28;20226;-76
2022/08/08 09:11:41;;;;;;;3.10;2.40;;;;;;;;;;5044998;28;20218;-76
2022/08/08 09:14:13;;;;;;;4.20;3.13;;;;;;;;;;5034012;28;20225;-76
2022/08/08 09:16:39;;;;;;;3.50;2.28;;;;;;;;;;5047281;28;20210;-76
2022/08/08 09:19:07;;;;;;;3.05;2.55;;;;;;;;;;5061426;28;20240;-76
2022/08/08 09:21:35;;;;;;;2.67;2.35;;;;;;;;;;5060297;28;20251;-76
2022/08/08 09:24:04;;;;;;;4.28;2.40;;;;;;;;;;5038893;28;20219;-75
2022/08/08 09:26:55;;;;;;;3.08;2.40;;;;;;;;;;5055194;28;20218;-77
2022/08/08 09:29:23;;;;;;;2.55;2.35;;;;;;;;;;5066257;28;20280;-74
2022/08/08 09:31:56;;;;;;;2.72;2.53;;;;;;;;;;5070990;28;20591;-76
2022/08/08 09:34:25;;;;;;;6.43;2.88;;;;;;;;;;5064771;28;20214;-76
2022/08/08 09:36:58;;;;;;;3.35;2.40;;;;;;;;;;5060381;28;20213;-75
2022/08/08 09:39:27;;;;;;;3.10;2.80;;;;;;;;;;5040701;28;20766;-75
2022/08/08 09:42:02;;;;;;;3.47;2.50;;;;;;;;;;5041703;28;20217;-75
2022/08/08 09:44:56;;;;;;;2.75;2.50;;;;;;;;;;5057223;28;20218;-76
2022/08/08 09:47:22;;;;;;;3.30;2.30;;;;;;;;;;5076993;28;20222;-76
2022/08/08 09:49:47;;;;;;;5.78;3.28;;;;;;;;;;5042645;28;20233;-76
2022/08/08 09:52:21;;;;;;;3.97;2.83;;;;;;;;;;5053418;28;20218;-75
2022/08/08 09:54:46;;;;;;;2.88;2.58;;;;;;;;;;5065326;28;20241;-75
2022/08/08 09:57:16;;;;;;;3.55;3.00;;;;;;;;;;5042529;28;20219;-75
2022/08/08 09:59:41;;;;;;;2.47;2.28;;;;;;;;;;5059643;28;20633;-74
2022/08/08 10:02:15;;;;;;;3.00;2.65;;;;;;;;;;5027899;28;20230;-74
2022/08/08 10:04:40;;;;;;;2.85;2.55;;;;;;;;;;5082230;28;20339;-73
2022/08/08 10:07:12;;;;;;;3.47;2.50;;;;;;;;;;5064860;28;20597;-75
2022/08/08 10:09:37;;;;;;;3.45;2.60;;;;;;;;;;5045617;28;20214;-74
2022/08/08 10:12:03;;;;;;;2.50;2.30;;;;;;;;;;5042535;28;20594;-75
2022/08/08 10:14:38;;;;;;;2.72;2.50;;;;;;;;;;5076517;28;20219;-75
2022/08/08 10:17:11;;;;;;;3.05;2.13;;;;;;;;;;5049574;28;20568;-74
2022/08/08 10:19:41;;;;;;;2.45;2.25;;;;;;;;;;5048749;28;20215;-75
2022/08/08 10:22:12;;;;;;;3.35;2.40;;;;;;;;;;5056398;28;20262;-74
2022/08/08 10:24:48;;;;;;;4.10;2.50;;;;;;;;;;5042664;28;20226;-75
2022/08/08 10:27:15;;;;;;;4.63;2.58;;;;;;;;;;5071144;28;20254;-75
2022/08/08 10:29:52;;;;;;;3.08;2.70;;;;;;;;;;5047924;28;20917;-75
2022/08/08 10:32:36;;;;;;;2.90;2.63;;;;;;;;;;5063328;28;20250;-74
2022/08/08 10:35:13;;;;;;;2.90;2.70;;;;;;;;;;5050157;28;20214;-75
2022/08/08 10:38:00;;;;;;;2.60;2.40;;;;;;;;;;5053484;28;20714;-75
2022/08/08 10:40:29;;;;;;;5.68;2.70;;;;;;;;;;5076284;28;20215;-75
2022/08/08 10:43:00;;;;;;;4.10;2.72;;;;;;;;;;5083658;28;20351;-75
2022/08/08 10:45:25;;;;;;;2.78;2.58;;;;;;;;;;5034100;28;20234;-74
2022/08/08 10:47:58;;;;;;;3.28;2.70;;;;;;;;;;5079987;28;20211;-77
2022/08/08 10:50:31;;;;;;;3.83;2.70;;;;;;;;;;5066348;28;20336;-74
2022/08/08 10:53:07;;;;;;;3.25;2.40;;;;;;;;;;5067821;28;20326;-74
2022/08/08 10:55:41;;;;;;;2.65;2.45;;;;;;;;;;5058868;28;20226;-75
2022/08/08 10:58:09;;;;;;;2.83;2.63;;;;;;;;;;5054370;28;20614;-74
2022/08/08 11:00:40;;;;;;;2.92;2.63;;;;;;;;;;5063847;28;20276;-76
2022/08/08 11:03:10;;;;;;;2.75;2.50;;;;;;;;;;5052512;28;20272;-76
2022/08/08 11:05:48;;;;;;;2.58;2.38;;;;;;;;;;5059082;28;20219;-74
2022/08/08 11:08:23;;;;;;;3.13;2.67;;;;;;;;;;5067922;28;20237;-75
2022/08/08 11:10:59;;;;;;;3.35;2.55;;;;;;;;;;5076198;28;20222;-75
2022/08/08 11:13:27;;;;;;;3.00;2.53;;;;;;;;;;5059289;28;20214;-75
2022/08/08 11:15:55;;;;;;;3.55;2.17;;;;;;;;;;5084336;28;20215;-75
2022/08/08 11:18:21;;;;;;;2.33;2.10;;;;;;;;;;5049135;28;20308;-75
2022/08/08 11:20:49;;;;;;;3.13;2.58;;;;;;;;;;5040382;28;20972;-76
2022/08/08 11:23:21;;;;;;;2.67;2.30;;;;;;;;;;5043555;28;20306;-77
2022/08/08 11:25:52;;;;;;;2.63;2.22;;;;;;;;;;5058813;28;20217;-76
2022/08/08 11:28:23;;;;;;;2.60;2.33;;;;;;;;;;5042247;28;20270;-76
2022/08/08 11:30:52;;;;;;;2.65;2.17;;;;;;;;;;5077461;28;20317;-76
2022/08/08 11:33:21;;;;;;;2.78;2.15;;;;;;;;;;5046017;28;20253;-76
2022/08/08 11:35:48;;;;;;;2.22;2.03;;;;;;;;;;5061561;28;20242;-75
2022/08/08 11:38:16;;;;;;;2.08;1.98;;;;;;;;;;5059799;28;20605;-75
2022/08/08 11:40:42;;;;;;;2.13;1.92;;;;;;;;;;5062343;28;20355;-75
2022/08/08 11:43:11;;;;;;;2.47;1.95;;;;;;;;;;5034717;28;20789;-77
2022/08/08 11:45:41;;;;;;;1.90;1.80;;;;;;;;;;5057115;28;20254;-76
2022/08/08 11:48:06;;;;;;;2.50;2.08;;;;;;;;;;5045903;28;20217;-75
2022/08/08 11:50:32;;;;;;;1.98;1.88;;;;;;;;;;5068020;28;20206;-76
2022/08/08 11:52:58;;;;;;;3.08;1.98;;;;;;;;;;5075473;28;20725;-74
2022/08/08 11:55:26;;;;;;;2.95;2.28;;;;;;;;;;5044028;28;20221;-76
2022/08/08 11:58:07;;;;;;;2.35;2.15;;;;;;;;;;5071579;28;20253;-76
2022/08/08 12:00:33;;;;;;;2.50;2.30;;;;;;;;;;5056626;28;20214;-75
2022/08/08 12:02:59;;;;;;;2.42;2.20;;;;;;;;;;5045503;28;20239;-75
2022/08/08 12:05:38;;;;;;;2.20;2.00;;;;;;;;;;5044868;28;20226;-76
2022/08/08 12:08:04;;;;;;;2.40;2.20;;;;;;;;;;5077783;28;20214;-76
2022/08/08 12:10:29;;;;;;;2.38;2.17;;;;;;;;;;5049013;28;20369;-76
2022/08/08 12:13:08;;;;;;;2.50;2.13;;;;;;;;;;5045697;28;20301;-76
2022/08/08 12:15:46;;;;;;;2.60;2.03;;;;;;;;;;5066040;28;20618;-76
2022/08/08 12:18:25;;;;;;;2.47;2.28;;;;;;;;;;5051537;28;20662;-77
2022/08/08 12:20:56;;;;;;;3.35;2.25;;;;;;;;;;5074241;28;20291;-76
2022/08/08 12:23:32;;;;;;;2.88;2.53;;;;;;;;;;5056758;28;20230;-75
2022/08/08 12:26:10;;;;;;;2.55;2.30;;;;;;;;;;5054050;28;20221;-75
2022/08/08 12:28:35;;;;;;;2.50;2.30;;;;;;;;;;5071302;28;20287;-76
2022/08/08 12:31:09;;;;;;;2.10;2.00;;;;;;;;;;5046352;28;20245;-77
2022/08/08 12:33:39;;;;;;;2.20;2.00;;;;;;;;;;5064767;28;20683;-77
2022/08/08 12:36:13;;;;;;;3.20;2.20;;;;;;;;;;5026247;28;20211;-77
2022/08/08 12:38:50;;;;;;;2.22;2.03;;;;;;;;;;5043148;28;20215;-76
2022/08/08 12:41:18;;;;;;;2.10;1.90;;;;;;;;;;5042207;28;20213;-76
2022/08/08 12:43:46;;;;;;;2.05;1.90;;;;;;;;;;5059371;28;20276;-77
2022/08/08 12:46:15;;;;;;;2.50;2.00;;;;;;;;;;5049645;28;20552;-76
2022/08/08 12:48:51;;;;;;;2.28;2.10;;;;;;;;;;5098139;28;20226;-76
2022/08/08 12:51:20;;;;;;;2.38;2.00;;;;;;;;;;5061550;28;20241;-75
2022/08/08 12:54:02;;;;;;;1.95;1.73;;;;;;;;;;5057242;28;20249;-76
2022/08/08 12:56:35;;;;;;;2.30;2.08;;;;;;;;;;5060755;28;20335;-74
2022/08/08 12:59:26;;;;;;;2.88;2.00;;;;;;;;;;5078074;28;20301;-76
2022/08/08 13:02:01;;;;;;;4.68;2.08;;;;;;;;;;5081751;28;20222;-76
2022/08/08 13:04:33;;;;;;;3.72;2.20;;;;;;;;;;5078773;28;20754;-74
2022/08/08 13:07:07;;;;;;;2.78;1.98;;;;;;;;;;5062501;28;20222;-76
2022/08/08 13:09:42;;;;;;;2.03;1.83;;;;;;;;;;5069843;28;20218;-74
2022/08/08 13:12:25;;;;;;;2.30;2.10;;;;;;;;;;5055435;28;20305;-75
2022/08/08 13:14:54;;;;;;;2.08;1.90;;;;;;;;;;5065738;28;20214;-75
2022/08/08 13:17:21;;;;;;;2.67;1.98;;;;;;;;;;5071118;28;20222;-75
2022/08/08 13:19:47;;;;;;;2.63;2.00;;;;;;;;;;5043485;28;20246;-76
2022/08/08 13:22:15;;;;;;;2.35;1.73;;;;;;;;;;5042865;28;20598;-77
2022/08/08 13:24:45;;;;;;;2.25;2.00;;;;;;;;;;5065236;28;20218;-76
2022/08/08 13:27:12;;;;;;;2.35;2.15;;;;;;;;;;5058011;28;20218;-75
2022/08/08 13:29:54;;;;;;;2.38;1.98;;;;;;;;;;5070483;28;20221;-76
2022/08/08 13:32:25;;;;;;;3.58;2.10;;;;;;;;;;5039587;28;20250;-76
2022/08/08 13:34:53;;;;;;;1.90;1.80;;;;;;;;;;5049099;28;20218;-74
2022/08/08 13:37:23;;;;;;;2.00;1.90;;;;;;;;;;5072720;28;20242;-75
2022/08/08 13:39:50;;;;;;;1.98;1.77;;;;;;;;;;5056594;28;20218;-75
2022/08/08 13:42:19;;;;;;;2.53;2.13;;;;;;;;;;5040365;28;20223;-76
2022/08/08 13:44:47;;;;;;;3.15;2.10;;;;;;;;;;5060881;28;20237;-76
2022/08/08 13:47:18;;;;;;;3.10;2.08;;;;;;;;;;5072365;28;20363;-76
2022/08/08 13:49:57;;;;;;;2.95;2.20;;;;;;;;;;5072836;28;20227;-74
2022/08/08 13:52:26;;;;;;;2.30;1.92;;;;;;;;;;5068174;28;20340;-75
2022/08/08 13:54:58;;;;;;;1.95;1.75;;;;;;;;;;5069894;28;20226;-74
2022/08/08 13:57:35;;;;;;;2.70;1.98;;;;;;;;;;5040486;28;20890;-76
2022/08/08 14:00:07;;;;;;;4.47;1.90;;;;;;;;;;5065033;28;20226;-75
2022/08/08 14:02:37;;;;;;;2.15;1.70;;;;;;;;;;5075848;28;20232;-76
2022/08/08 14:05:07;;;;;;;2.15;1.95;;;;;;;;;;5046285;28;21206;-76
2022/08/08 14:07:37;;;;;;;2.60;1.90;;;;;;;;;;5079310;28;20229;-74
2022/08/08 14:10:07;;;;;;;3.17;2.00;;;;;;;;;;5055081;28;20289;-76
2022/08/08 14:12:38;;;;;;;3.47;1.88;;;;;;;;;;5063042;28;20214;-77
2022/08/08 14:15:10;;;;;;;2.10;1.60;;;;;;;;;;5059338;28;20250;-75
2022/08/08 14:17:39;;;;;;;2.03;1.83;;;;;;;;;;5070191;28;20233;-77
2022/08/08 14:20:07;;;;;;;4.65;1.90;;;;;;;;;;5051422;28;20222;-76
2022/08/08 14:22:42;;;;;;;2.17;1.98;;;;;;;;;;5049906;28;20222;-76
2022/08/08 14:25:08;;;;;;;1.55;1.42;;;;;;;;;;5057958;28;20263;-76
2022/08/08 14:27:37;;;;;;;2.72;2.10;;;;;;;;;;5063182;28;20321;-75
2022/08/08 14:30:08;;;;;;;2.53;1.95;;;;;;;;;;5084857;28;20229;-75
2022/08/08 14:32:34;;;;;;;2.22;1.80;;;;;;;;;;5076323;28;20210;-75
2022/08/08 14:35:07;;;;;;;2.42;1.85;;;;;;;;;;5063306;28;20238;-75
2022/08/08 14:37:40;;;;;;;4.57;1.80;;;;;;;;;;5076487;28;20218;-75
2022/08/08 14:40:17;;;;;;;2.22;1.60;;;;;;;;;;5068136;28;20691;-75
2022/08/08 14:42:46;;;;;;;2.55;2.00;;;;;;;;;;5045132;28;20225;-75
2022/08/08 14:45:13;;;;;;;3.38;2.00;;;;;;;;;;5052808;28;20446;-75
2022/08/08 14:47:51;;;;;;;2.38;1.70;;;;;;;;;;5073820;28;20702;-75
2022/08/08 14:50:21;;;;;;;2.10;1.80;;;;;;;;;;5059548;28;20994;-74
2022/08/08 14:52:58;;;;;;;1.98;1.70;;;;;;;;;;5080458;28;20214;-75
2022/08/08 14:55:25;;;;;;;2.30;1.98;;;;;;;;;;5056558;28;20215;-75
2022/08/08 14:57:54;;;;;;;3.53;1.70;;;;;;;;;;5062292;28;20218;-75
2022/08/08 15:00:20;;;;;;;3.45;1.70;;;;;;;;;;5044553;28;20715;-74
2022/08/08 15:02:47;;;;;;;2.65;1.65;;;;;;;;;;5070398;28;20237;-73
2022/08/08 15:05:16;;;;;;;2.67;1.80;;;;;;;;;;5074847;28;20305;-75
2022/08/08 15:07:46;;;;;;;3.17;1.90;;;;;;;;;;5072062;28;20223;-74
2022/08/08 15:10:12;;;;;;;2.42;1.90;;;;;;;;;;5060542;28;20384;-75
2022/08/08 15:12:41;;;;;;;2.50;1.48;;;;;;;;;;5044619;28;20301;-75
2022/08/08 15:15:07;;;;;;;3.50;1.67;;;;;;;;;;5048006;28;20222;-73
2022/08/08 15:17:35;;;;;;;2.75;1.60;;;;;;;;;;5062514;28;20639;-74
2022/08/08 15:20:03;;;;;;;2.88;1.60;;;;;;;;;;5067847;28;20218;-74
2022/08/08 15:22:31;;;;;;;2.38;1.67;;;;;;;;;;5067028;28;20217;-75
2022/08/08 15:24:57;;;;;;;3.20;1.90;;;;;;;;;;5083591;28;20230;-74
2022/08/08 15:27:22;;;;;;;2.90;1.80;;;;;;;;;;5079810;28;20234;-75
2022/08/08 15:29:50;;;;;;;4.88;1.88;;;;;;;;;;5074480;28;20218;-74